Time;durP1;ratioP1;P1;durP2;ratioP2;P2;SDS_P1;SDS_P2;PMS_P1;PMS_P2;Temp;Humidity;BMP_temperature;BMP_pressure;BME280_temperature;BME280_humidity;BME280_pressure;Samples;Min_cycle;Max_cycle;Signal;HPM_P1;HPM_P2
2022/12/20 00:01:22;;;;;;;;;;;;;;;;;;5029530;28;20017;-71
2022/12/20 00:03:48;;;;;;;;;;;;;;;;;;5029752;28;19917;-71
2022/12/20 00:06:14;;;;;;;;;;;;;;;;;;5029973;28;20019;-72
2022/12/20 00:08:40;;;;;;;;;;;;;;;;;;5029440;28;20012;-71
2022/12/20 00:11:06;;;;;;;;;;;;;;;;;;5028097;28;19995;-71
2022/12/20 00:13:32;;;;;;;;;;;;;;;;;;5022458;28;20332;-72
2022/12/20 00:15:58;;;;;;;;;;;;;;;;;;5022668;28;19913;-72
2022/12/20 00:18:24;;;;;;;;;;;;;;;;;;5029401;28;19932;-71
2022/12/20 00:20:50;;;;;;;;;;;;;;;;;;5029339;28;19928;-72
2022/12/20 00:23:15;;;;;;;;;;;;;;;;;;5029432;28;19913;-72
2022/12/20 00:25:41;;;;;;;;;;;;;;;;;;5029481;28;19913;-72
2022/12/20 00:28:07;;;;;;;;;;;;;;;;;;5029510;28;19913;-73
2022/12/20 00:30:33;;;;;;;;;;;;;;;;;;5028676;28;19913;-71
2022/12/20 00:32:59;;;;;;;;;;;;;;;;;;5029523;28;19913;-72
2022/12/20 00:35:25;;;;;;;;;;;;;;;;;;5028999;28;20298;-72
2022/12/20 00:37:51;;;;;;;;;;;;;;;;;;5032149;28;19952;-71
2022/12/20 00:40:17;;;;;;;;;;;;;;;;;;5032101;28;19917;-72
2022/12/20 00:42:43;;;;;;;;;;;;;;;;;;5033315;28;19913;-72
2022/12/20 00:45:08;;;;;;;;;;;;;;;;;;5032970;28;19913;-71
2022/12/20 00:47:34;;;;;;;;;;;;;;;;;;5033675;28;20341;-71
2022/12/20 00:50:00;;;;;;;;;;;;;;;;;;5033476;28;19913;-71
2022/12/20 00:52:26;;;;;;;;;;;;;;;;;;5033558;28;20393;-72
2022/12/20 00:54:52;;;;;;;;;;;;;;;;;;5032947;28;20023;-72
2022/12/20 00:57:18;;;;;;;;;;;;;;;;;;5032894;28;20396;-72
2022/12/20 00:59:44;;;;;;;;;;;;;;;;;;5032351;28;19917;-72
2022/12/20 01:02:10;;;;;;;;;;;;;;;;;;5033062;28;19916;-72
2022/12/20 01:04:36;;;;;;;;;;;;;;;;;;5033174;28;19935;-72
2022/12/20 01:07:02;;;;;;;;;;;;;;;;;;5032635;28;19913;-72
2022/12/20 01:09:27;;;;;;;;;;;;;;;;;;5033316;28;19913;-72
2022/12/20 01:11:53;;;;;;;;;;;;;;;;;;5032294;28;20004;-73
2022/12/20 01:14:19;;;;;;;;;;;;;;;;;;5032098;28;19972;-72
2022/12/20 01:16:45;;;;;;;;;;;;;;;;;;5026287;28;20325;-71
2022/12/20 01:19:11;;;;;;;;;;;;;;;;;;5031160;28;19948;-72
2022/12/20 01:21:43;;;;;;;;;;;;;;;;;;5032525;28;19913;-72
2022/12/20 01:24:09;;;;;;;;;;;;;;;;;;5032986;28;19913;-70
2022/12/20 01:26:34;;;;;;;;;;;;;;;;;;5031465;28;19919;-69
2022/12/20 01:29:00;;;;;;;;;;;;;;;;;;5032422;28;19960;-70
2022/12/20 01:31:26;;;;;;;;;;;;;;;;;;5033192;28;19948;-70
2022/12/20 01:33:52;;;;;;;;;;;;;;;;;;5026738;28;19918;-69
2022/12/20 01:36:18;;;;;;;;;;;;;;;;;;5030981;28;20008;-69
2022/12/20 01:38:44;;;;;;;;;;;;;;;;;;5032417;28;19956;-70
2022/12/20 01:41:10;;;;;;;;;;;;;;;;;;5031820;28;20007;-72
2022/12/20 01:43:36;;;;;;;;;;;;;;;;;;5032234;28;20370;-72
2022/12/20 01:46:01;;;;;;;;;;;;;;;;;;5032529;28;19909;-72
2022/12/20 01:48:27;;;;;;;;;;;;;;;;;;5031124;28;20346;-72
2022/12/20 01:50:53;;;;;;;;;;;;;;;;;;5032040;28;19909;-72
2022/12/20 01:53:19;;;;;;;;;;;;;;;;;;5032087;28;20008;-72
2022/12/20 01:55:46;;;;;;;;;;;;;;;;;;5032233;28;19917;-72
2022/12/20 01:58:12;;;;;;;;;;;;;;;;;;5031959;28;19913;-73
2022/12/20 02:00:38;;;;;;;;;;;;;;;;;;5032176;28;19966;-73
2022/12/20 02:03:04;;;;;;;;;;;;;;;;;;5031661;28;19909;-72
2022/12/20 02:05:30;;;;;;;;;;;;;;;;;;5031982;28;19913;-72
2022/12/20 02:07:56;;;;;;;;;;;;;;;;;;5024899;28;19921;-72
2022/12/20 02:10:22;;;;;;;;;;;;;;;;;;5031135;28;19913;-73
2022/12/20 02:12:48;;;;;;;;;;;;;;;;;;5024998;28;19928;-71
2022/12/20 02:15:14;;;;;;;;;;;;;;;;;;5031931;28;20000;-73
2022/12/20 02:17:40;;;;;;;;;;;;;;;;;;5031995;28;19909;-73
2022/12/20 02:20:06;;;;;;;;;;;;;;;;;;5031213;28;19928;-70
2022/12/20 02:22:32;;;;;;;;;;;;;;;;;;5031695;28;19912;-73
2022/12/20 02:24:58;;;;;;;;;;;;;;;;;;5031305;28;20393;-73
2022/12/20 02:27:24;;;;;;;;;;;;;;;;;;5031467;28;19909;-73
2022/12/20 02:29:50;;;;;;;;;;;;;;;;;;5031114;28;20359;-73
2022/12/20 02:32:16;;;;;;;;;;;;;;;;;;5031394;28;19917;-71
2022/12/20 02:34:42;;;;;;;;;;;;;;;;;;5031772;28;20416;-73
2022/12/20 02:37:07;;;;;;;;;;;;;;;;;;5031390;28;20012;-72
2022/12/20 02:39:33;;;;;;;;;;;;;;;;;;5030461;28;19921;-70
2022/12/20 02:41:59;;;;;;;;;;;;;;;;;;5031375;28;19913;-72
2022/12/20 02:47:09;;;;;;;;;;;;;;;;;;5030602;28;19916;-70
2022/12/20 02:49:37;;;;;;;;;;;;;;;;;;5025127;28;20297;-70
2022/12/20 02:52:03;;;;;;;;;;;;;;;;;;5024117;28;19921;-70
2022/12/20 02:54:29;;;;;;;;;;;;;;;;;;5030717;28;19928;-70
2022/12/20 02:56:55;;;;;;;;;;;;;;;;;;5030710;28;19920;-71
2022/12/20 02:59:21;;;;;;;;;;;;;;;;;;5030720;28;19967;-71
2022/12/20 03:01:47;;;;;;;;;;;;;;;;;;5030049;28;19952;-70
2022/12/20 03:04:12;;;;;;;;;;;;;;;;;;5030939;28;19955;-70
2022/12/20 03:06:38;;;;;;;;;;;;;;;;;;5030789;28;19913;-71
2022/12/20 03:09:04;;;;;;;;;;;;;;;;;;5030006;28;19913;-71
2022/12/20 03:11:30;;;;;;;;;;;;;;;;;;5030629;28;19932;-71
2022/12/20 03:13:56;;;;;;;;;;;;;;;;;;5030415;28;19931;-71
2022/12/20 03:16:22;;;;;;;;;;;;;;;;;;5030463;28;20374;-71
2022/12/20 03:18:48;;;;;;;;;;;;;;;;;;5030702;28;19963;-71
2022/12/20 03:21:14;;;;;;;;;;;;;;;;;;5030461;28;20016;-73
2022/12/20 03:23:40;;;;;;;;;;;;;;;;;;5030132;28;20046;-72
2022/12/20 03:26:05;;;;;;;;;;;;;;;;;;5030658;28;19917;-72
2022/12/20 03:28:31;;;;;;;;;;;;;;;;;;5027968;28;19909;-73
2022/12/20 03:30:57;;;;;;;;;;;;;;;;;;5026271;28;19909;-72
2022/12/20 03:33:23;;;;;;;;;;;;;;;;;;5030250;28;19909;-74
2022/12/20 03:35:49;;;;;;;;;;;;;;;;;;5029987;28;19963;-73
2022/12/20 03:38:15;;;;;;;;;;;;;;;;;;5030206;28;19968;-73
2022/12/20 03:40:41;;;;;;;;;;;;;;;;;;5030201;28;19921;-73
2022/12/20 03:43:07;;;;;;;;;;;;;;;;;;5030211;28;19909;-73
2022/12/20 03:45:33;;;;;;;;;;;;;;;;;;5030896;28;20544;-73
2022/12/20 03:47:58;;;;;;;;;;;;;;;;;;5029900;28;20382;-73
2022/12/20 03:50:24;;;;;;;;;;;;;;;;;;5028071;28;19910;-73
2022/12/20 03:52:50;;;;;;;;;;;;;;;;;;5030156;28;20288;-73
2022/12/20 03:55:16;;;;;;;;;;;;;;;;;;5029633;28;20445;-72
2022/12/20 03:57:42;;;;;;;;;;;;;;;;;;5029657;28;19913;-72
2022/12/20 04:00:08;;;;;;;;;;;;;;;;;;5029903;28;19917;-73
2022/12/20 04:02:34;;;;;;;;;;;;;;;;;;5029651;28;20390;-72
2022/12/20 04:05:00;;;;;;;;;;;;;;;;;;5029310;28;19909;-72
2022/12/20 04:07:26;;;;;;;;;;;;;;;;;;5029373;28;19920;-72
2022/12/20 04:09:52;;;;;;;;;;;;;;;;;;5029635;28;19921;-72
2022/12/20 04:12:18;;;;;;;;;;;;;;;;;;5029349;28;19909;-72
2022/12/20 04:14:44;;;;;;;;;;;;;;;;;;5029409;28;20317;-72
2022/12/20 04:17:10;;;;;;;;;;;;;;;;;;5029731;28;20381;-72
2022/12/20 04:19:36;;;;;;;;;;;;;;;;;;5029251;28;19917;-71
2022/12/20 04:22:02;;;;;;;;;;;;;;;;;;5029883;28;20381;-72
2022/12/20 04:24:27;;;;;;;;;;;;;;;;;;5029889;28;20015;-72
2022/12/20 04:26:53;;;;;;;;;;;;;;;;;;5029179;28;20374;-73
2022/12/20 04:29:19;;;;;;;;;;;;;;;;;;5029368;28;19968;-73
2022/12/20 04:31:45;;;;;;;;;;;;;;;;;;5029434;28;19913;-72
2022/12/20 04:34:11;;;;;;;;;;;;;;;;;;5027269;28;19957;-72
2022/12/20 04:36:37;;;;;;;;;;;;;;;;;;5029165;28;20361;-72
2022/12/20 04:39:03;;;;;;;;;;;;;;;;;;5029880;28;19917;-73
2022/12/20 04:41:29;;;;;;;;;;;;;;;;;;5029330;28;19924;-72
2022/12/20 04:43:55;;;;;;;;;;;;;;;;;;5029436;28;19914;-73
2022/12/20 04:46:21;;;;;;;;;;;;;;;;;;5029673;28;19963;-72
2022/12/20 04:48:47;;;;;;;;;;;;;;;;;;5027839;28;20351;-71
2022/12/20 04:51:13;;;;;;;;;;;;;;;;;;5029281;28;19913;-71
2022/12/20 04:53:48;;;;;;;;;;;;;;;;;;5029119;28;19913;-72
2022/12/20 04:56:14;;;;;;;;;;;;;;;;;;5029381;28;19991;-71
2022/12/20 04:58:40;;;;;;;;;;;;;;;;;;5029218;28;19921;-73
2022/12/20 05:01:06;;;;;;;;;;;;;;;;;;5029351;28;19917;-73
2022/12/20 05:03:32;;;;;;;;;;;;;;;;;;5029197;28;19909;-73
2022/12/20 05:05:58;;;;;;;;;;;;;;;;;;5022499;28;19909;-73
2022/12/20 05:08:24;;;;;;;;;;;;;;;;;;5028807;28;20333;-73
2022/12/20 05:10:50;;;;;;;;;;;;;;;;;;5029268;28;19917;-73
2022/12/20 05:13:16;;;;;;;;;;;;;;;;;;5029075;28;20294;-74
2022/12/20 05:15:42;;;;;;;;;;;;;;;;;;5029226;28;19910;-74
2022/12/20 05:18:08;;;;;;;;;;;;;;;;;;5028840;28;19909;-72
2022/12/20 05:20:33;;;;;;;;;;;;;;;;;;5028583;28;19932;-74
2022/12/20 05:28:29;;;;;;;;;;;;;;;;;;5033072;28;20278;-74
2022/12/20 05:30:55;;;;;;;;;;;;;;;;;;5032870;28;19913;-74
2022/12/20 05:33:21;;;;;;;;;;;;;;;;;;5032372;28;20361;-74
2022/12/20 05:35:47;;;;;;;;;;;;;;;;;;5033180;28;19999;-74
2022/12/20 05:38:12;;;;;;;;;;;;;;;;;;5032560;28;19909;-73
2022/12/20 05:40:38;;;;;;;;;;;;;;;;;;5032677;28;19921;-74
2022/12/20 05:43:05;;;;;;;;;;;;;;;;;;5032817;28;19916;-74
2022/12/20 05:45:31;;;;;;;;;;;;;;;;;;5032480;28;19944;-74
2022/12/20 05:47:57;;;;;;;;;;;;;;;;;;5032413;28;19955;-74
2022/12/20 05:50:22;;;;;;;;;;;;;;;;;;5032744;28;19982;-74
2022/12/20 05:52:51;;;;;;;;;;;;;;;;;;5032971;28;19913;-74
2022/12/20 05:55:17;;;;;;;;;;;;;;;;;;5029370;28;19913;-74
2022/12/20 05:57:43;;;;;;;;;;;;;;;;;;5033011;28;19913;-72
2022/12/20 06:00:08;;;;;;;;;;;;;;;;;;5032282;28;20346;-71
2022/12/20 06:02:34;;;;;;;;;;;;;;;;;;5031910;28;19910;-70
2022/12/20 06:05:01;;;;;;;;;;;;;;;;;;5032125;28;20278;-72
2022/12/20 06:07:30;;;;;;;;;;;;;;;;;;5032673;28;20063;-72
2022/12/20 06:09:56;;;;;;;;;;;;;;;;;;5031788;28;20000;-72
2022/12/20 06:12:22;;;;;;;;;;;;;;;;;;5031698;28;20060;-73
2022/12/20 06:14:48;;;;;;;;;;;;;;;;;;5032298;28;19928;-74
2022/12/20 06:17:14;;;;;;;;;;;;;;;;;;5031765;28;19936;-74
2022/12/20 06:19:43;;;;;;;;;;;;;;;;;;5031607;28;19913;-74
2022/12/20 06:22:08;;;;;;;;;;;;;;;;;;5032373;28;20507;-74
2022/12/20 06:24:34;;;;;;;;;;;;;;;;;;5031812;28;19909;-74
2022/12/20 06:27:01;;;;;;;;;;;;;;;;;;5031482;28;19920;-74
2022/12/20 06:29:26;;;;;;;;;;;;;;;;;;5032135;28;19909;-73
2022/12/20 06:31:52;;;;;;;;;;;;;;;;;;5031180;28;19909;-73
2022/12/20 06:34:19;;;;;;;;;;;;;;;;;;5031541;28;19952;-74
2022/12/20 06:36:45;;;;;;;;;;;;;;;;;;5031451;28;19917;-75
2022/12/20 06:39:11;;;;;;;;;;;;;;;;;;5031545;28;19963;-74
2022/12/20 06:41:37;;;;;;;;;;;;;;;;;;5031456;28;19953;-75
2022/12/20 06:44:03;;;;;;;;;;;;;;;;;;5031291;28;19909;-75
2022/12/20 06:46:29;;;;;;;;;;;;;;;;;;5031361;28;19952;-73
2022/12/20 06:48:55;;;;;;;;;;;;;;;;;;5029849;28;19924;-73
2022/12/20 06:51:21;;;;;;;;;;;;;;;;;;5031226;28;19959;-74
2022/12/20 06:53:47;;;;;;;;;;;;;;;;;;5031391;28;19916;-74
2022/12/20 06:56:12;;;;;;;;;;;;;;;;;;5031359;28;19916;-74
2022/12/20 06:58:38;;;;;;;;;;;;;;;;;;5030926;28;20355;-74
2022/12/20 07:01:04;;;;;;;;;;;;;;;;;;5030186;28;19917;-74
2022/12/20 07:03:30;;;;;;;;;;;;;;;;;;5031178;28;19913;-74
2022/12/20 07:05:56;;;;;;;;;;;;;;;;;;5030988;28;19948;-74
2022/12/20 07:08:22;;;;;;;;;;;;;;;;;;5030818;28;20000;-73
2022/12/20 07:10:48;;;;;;;;;;;;;;;;;;5030787;28;19910;-72
2022/12/20 07:13:14;;;;;;;;;;;;;;;;;;5030981;28;19971;-74
2022/12/20 07:15:40;;;;;;;;;;;;;;;;;;5030191;28;19924;-73
2022/12/20 07:18:06;;;;;;;;;;;;;;;;;;5031106;28;19932;-73
2022/12/20 07:20:31;;;;;;;;;;;;;;;;;;5030705;28;20309;-73
2022/12/20 07:22:57;;;;;;;;;;;;;;;;;;5030562;28;19924;-73
2022/12/20 07:25:24;;;;;;;;;;;;;;;;;;5030981;28;19921;-74
2022/12/20 07:27:50;;;;;;;;;;;;;;;;;;5030378;28;19978;-75
2022/12/20 07:30:16;;;;;;;;;;;;;;;;;;5029740;28;20362;-73
2022/12/20 07:32:42;;;;;;;;;;;;;;;;;;5030013;28;19920;-73
2022/12/20 07:35:08;;;;;;;;;;;;;;;;;;5029894;28;19935;-74
2022/12/20 07:37:35;;;;;;;;;;;;;;;;;;5029893;28;20305;-73
2022/12/20 07:40:01;;;;;;;;;;;;;;;;;;5030706;28;19921;-74
2022/12/20 07:42:26;;;;;;;;;;;;;;;;;;5029734;28;19960;-73
2022/12/20 07:44:52;;;;;;;;;;;;;;;;;;5029540;28;20672;-73
2022/12/20 07:47:18;;;;;;;;;;;;;;;;;;5029241;28;19924;-73
2022/12/20 07:49:44;;;;;;;;;;;;;;;;;;5029797;28;19909;-74
2022/12/20 07:52:10;;;;;;;;;;;;;;;;;;5030440;28;19956;-74
2022/12/20 07:54:36;;;;;;;;;;;;;;;;;;5030073;28;19955;-73
2022/12/20 07:57:02;;;;;;;;;;;;;;;;;;5029598;28;20001;-74
2022/12/20 07:59:28;;;;;;;;;;;;;;;;;;5029295;28;19925;-73
2022/12/20 08:01:54;;;;;;;;;;;;;;;;;;5023733;28;19927;-73
2022/12/20 08:04:20;;;;;;;;;;;;;;;;;;5029247;28;20259;-73
2022/12/20 08:06:46;;;;;;;;;;;;;;;;;;5029481;28;19910;-73
2022/12/20 08:09:12;;;;;;;;;;;;;;;;;;5029653;28;20003;-73
2022/12/20 08:11:38;;;;;;;;;;;;;;;;;;5023277;28;20409;-73
2022/12/20 08:14:04;;;;;;;;;;;;;;;;;;5029104;28;20301;-73
2022/12/20 08:16:30;;;;;;;;;;;;;;;;;;5029640;28;19924;-73
2022/12/20 08:18:56;;;;;;;;;;;;;;;;;;5029840;28;20294;-73
2022/12/20 08:21:22;;;;;;;;;;;;;;;;;;5029304;28;19917;-74
2022/12/20 08:23:48;;;;;;;;;;;;;;;;;;5029875;28;20441;-73
2022/12/20 08:26:14;;;;;;;;;;;;;;;;;;5029044;28;19905;-73
2022/12/20 08:28:39;;;;;;;;;;;;;;;;;;5028789;28;19971;-73
2022/12/20 08:31:05;;;;;;;;;;;;;;;;;;5028312;28;19917;-73
2022/12/20 08:33:31;;;;;;;;;;;;;;;;;;5028646;28;19913;-62
2022/12/20 08:35:57;;;;;;;;;;;;;;;;;;5029643;28;19909;-64
2022/12/20 08:38:23;;;;;;;;;;;;;;;;;;5029130;28;19909;-64
2022/12/20 08:40:49;;;;;;;;;;;;;;;;;;5028402;28;19929;-67
2022/12/20 08:43:15;;;;;;;;;;;;;;;;;;5024946;28;19917;-68
2022/12/20 08:45:41;;;;;;;;;;;;;;;;;;5022024;28;19922;-68
2022/12/20 08:48:07;;;;;;;;;;;;;;;;;;5028945;28;19921;-69
2022/12/20 08:50:33;;;;;;;;;;;;;;;;;;5028374;28;19913;-69
2022/12/20 08:52:59;;;;;;;;;;;;;;;;;;5028800;28;19909;-68
2022/12/20 08:55:24;;;;;;;;;;;;;;;;;;5028592;28;19913;-67
2022/12/20 08:57:50;;;;;;;;;;;;;;;;;;5029076;28;19920;-68
2022/12/20 09:00:16;;;;;;;;;;;;;;;;;;5032686;28;19928;-68
2022/12/20 09:02:42;;;;;;;;;;;;;;;;;;5031566;28;19913;-67
2022/12/20 09:05:08;;;;;;;;;;;;;;;;;;5023771;28;19917;-66
2022/12/20 09:07:34;;;;;;;;;;;;;;;;;;5029530;28;19992;-67
2022/12/20 09:10:01;;;;;;;;;;;;;;;;;;5030986;28;20048;-67
2022/12/20 09:12:27;;;;;;;;;;;;;;;;;;5030276;28;20008;-68
2022/12/20 09:14:53;;;;;;;;;;;;;;;;;;5030751;28;20588;-67
2022/12/20 09:17:18;;;;;;;;;;;;;;;;;;5031070;28;19917;-67
2022/12/20 09:19:44;;;;;;;;;;;;;;;;;;5030548;28;19928;-67
2022/12/20 09:22:10;;;;;;;;;;;;;;;;;;5026668;28;19964;-67
2022/12/20 09:24:36;;;;;;;;;;;;;;;;;;5021587;28;20239;-67
2022/12/20 09:27:02;;;;;;;;;;;;;;;;;;5029410;28;19959;-66
2022/12/20 09:29:28;;;;;;;;;;;;;;;;;;5027020;28;20355;-67
2022/12/20 09:31:54;;;;;;;;;;;;;;;;;;5030864;28;19917;-67
2022/12/20 09:34:20;;;;;;;;;;;;;;;;;;5030640;28;19917;-68
2022/12/20 09:36:46;;;;;;;;;;;;;;;;;;5030119;28;19957;-68
2022/12/20 09:39:11;;;;;;;;;;;;;;;;;;5029831;28;20431;-66
2022/12/20 09:41:37;;;;;;;;;;;;;;;;;;5030011;28;20000;-67
2022/12/20 09:44:03;;;;;;;;;;;;;;;;;;5030384;28;19917;-67
2022/12/20 09:46:29;;;;;;;;;;;;;;;;;;5029689;28;19917;-68
2022/12/20 09:48:55;;;;;;;;;;;;;;;;;;5029470;28;19921;-66
2022/12/20 09:51:21;;;;;;;;;;;;;;;;;;5028732;28;20713;-67
2022/12/20 09:53:47;;;;;;;;;;;;;;;;;;5026879;28;19955;-67
2022/12/20 09:56:14;;;;;;;;;;;;;;;;;;5030263;28;19913;-66
2022/12/20 09:58:40;;;;;;;;;;;;;;;;;;5029488;28;19917;-67
2022/12/20 10:01:06;;;;;;;;;;;;;;;;;;5025973;28;20422;-67
2022/12/20 10:03:31;;;;;;;;;;;;;;;;;;5029812;28;19920;-66
2022/12/20 10:05:57;;;;;;;;;;;;;;;;;;5030068;28;20370;-68
2022/12/20 10:08:24;;;;;;;;;;;;;;;;;;5025944;28;20408;-65
2022/12/20 10:10:49;;;;;;;;;;;;;;;;;;5028359;28;20599;-67
2022/12/20 10:13:15;;;;;;;;;;;;;;;;;;5029437;28;19921;-67
2022/12/20 10:15:41;;;;;;;;;;;;;;;;;;5029468;28;19921;-66
2022/12/20 10:18:07;;;;;;;;;;;;;;;;;;5030175;28;19924;-66
2022/12/20 10:20:33;;;;;;;;;;;;;;;;;;5029075;28;19967;-66
2022/12/20 10:22:59;;;;;;;;;;;;;;;;;;5029769;28;19967;-65
2022/12/20 10:25:25;;;;;;;;;;;;;;;;;;5029370;28;19920;-67
2022/12/20 10:27:51;;;;;;;;;;;;;;;;;;5029030;28;19921;-67
2022/12/20 10:30:17;;;;;;;;;;;;;;;;;;5029319;28;20489;-66
2022/12/20 10:32:42;;;;;;;;;;;;;;;;;;5029222;28;19967;-67
2022/12/20 10:35:08;;;;;;;;;;;;;;;;;;5028890;28;20341;-67
2022/12/20 10:37:34;;;;;;;;;;;;;;;;;;5028642;28;19913;-67
2022/12/20 10:40:00;;;;;;;;;;;;;;;;;;5029055;28;20382;-66
2022/12/20 10:42:26;;;;;;;;;;;;;;;;;;5028953;28;19924;-68
2022/12/20 10:44:52;;;;;;;;;;;;;;;;;;5029602;28;20605;-66
2022/12/20 10:47:18;;;;;;;;;;;;;;;;;;5028746;28;19917;-68
2022/12/20 10:49:44;;;;;;;;;;;;;;;;;;5028433;28;19937;-67
2022/12/20 10:52:10;;;;;;;;;;;;;;;;;;5028064;28;20404;-67
2022/12/20 10:54:36;;;;;;;;;;;;;;;;;;5027929;28;19912;-67
2022/12/20 10:57:02;;;;;;;;;;;;;;;;;;5028633;28;20398;-66
2022/12/20 10:59:28;;;;;;;;;;;;;;;;;;5027147;28;19956;-68
2022/12/20 11:01:54;;;;;;;;;;;;;;;;;;5029035;28;20003;-67
2022/12/20 11:04:20;;;;;;;;;;;;;;;;;;5029054;28;19917;-67
2022/12/20 11:06:46;;;;;;;;;;;;;;;;;;5028327;28;20007;-67
2022/12/20 11:09:12;;;;;;;;;;;;;;;;;;5024722;28;20412;-64
2022/12/20 11:11:38;;;;;;;;;;;;;;;;;;5028611;28;19995;-68
2022/12/20 11:14:03;;;;;;;;;;;;;;;;;;5028033;28;20416;-67
2022/12/20 11:16:29;;;;;;;;;;;;;;;;;;5026566;28;19917;-67
2022/12/20 11:18:56;;;;;;;;;;;;;;;;;;5027580;28;20516;-67
2022/12/20 11:21:22;;;;;;;;;;;;;;;;;;5027411;28;19983;-67
2022/12/20 11:23:48;;;;;;;;;;;;;;;;;;5028486;28;19949;-66
2022/12/20 11:26:14;;;;;;;;;;;;;;;;;;5027655;28;20378;-67
2022/12/20 11:28:40;;;;;;;;;;;;;;;;;;5027785;28;19924;-67
2022/12/20 11:31:06;;;;;;;;;;;;;;;;;;5026925;28;19955;-67
2022/12/20 11:33:31;;;;;;;;;;;;;;;;;;5027766;28;19917;-66
2022/12/20 11:35:57;;;;;;;;;;;;;;;;;;5026811;28;19913;-67
2022/12/20 11:38:23;;;;;;;;;;;;;;;;;;5028236;28;19913;-67
2022/12/20 11:40:49;;;;;;;;;;;;;;;;;;5027822;28;20341;-66
2022/12/20 11:43:15;;;;;;;;;;;;;;;;;;5028119;28;19913;-67
2022/12/20 11:45:41;;;;;;;;;;;;;;;;;;5027949;28;19921;-66
2022/12/20 11:48:07;;;;;;;;;;;;;;;;;;5027787;28;19913;-66
2022/12/20 11:50:34;;;;;;;;;;;;;;;;;;5027200;28;19999;-67
2022/12/20 11:53:00;;;;;;;;;;;;;;;;;;5027937;28;19913;-67
2022/12/20 11:55:25;;;;;;;;;;;;;;;;;;5028316;28;19917;-67
2022/12/20 11:57:51;;;;;;;;;;;;;;;;;;5027274;28;19928;-66
2022/12/20 12:00:17;;;;;;;;;;;;;;;;;;5027589;28;19925;-67
2022/12/20 12:02:43;;;;;;;;;;;;;;;;;;5027707;28;19950;-68
2022/12/20 12:05:09;;;;;;;;;;;;;;;;;;5027217;28;19917;-67
2022/12/20 12:07:35;;;;;;;;;;;;;;;;;;5026429;28;20382;-66
2022/12/20 12:10:01;;;;;;;;;;;;;;;;;;5027628;28;19924;-66
2022/12/20 12:12:27;;;;;;;;;;;;;;;;;;5025886;28;20485;-70
2022/12/20 12:14:53;;;;;;;;;;;;;;;;;;5027868;28;19932;-67
2022/12/20 12:17:19;;;;;;;;;;;;;;;;;;5027419;28;19913;-66
2022/12/20 12:19:44;;;;;;;;;;;;;;;;;;5027116;28;19964;-66
2022/12/20 12:22:11;;;;;;;;;;;;;;;;;;5027660;28;20293;-68
2022/12/20 12:24:38;;;;;;;;;;;;;;;;;;5027124;28;20397;-68
2022/12/20 12:27:03;;;;;;;;;;;;;;;;;;5027328;28;20408;-67
2022/12/20 12:29:29;;;;;;;;;;;;;;;;;;5027472;28;19909;-67
2022/12/20 12:31:55;;;;;;;;;;;;;;;;;;5027755;28;20037;-67
2022/12/20 12:34:21;;;;;;;;;;;;;;;;;;5026040;28;19920;-68
2022/12/20 12:36:47;;;;;;;;;;;;;;;;;;5027212;28;19917;-68
2022/12/20 12:39:13;;;;;;;;;;;;;;;;;;5027100;28;19935;-67
2022/12/20 12:41:39;;;;;;;;;;;;;;;;;;5025907;28;20151;-67
2022/12/20 12:44:05;;;;;;;;;;;;;;;;;;5027050;28;19936;-67
2022/12/20 12:46:31;;;;;;;;;;;;;;;;;;5026991;28;19924;-68
2022/12/20 12:48:57;;;;;;;;;;;;;;;;;;5026003;28;20512;-66
2022/12/20 12:51:23;;;;;;;;;;;;;;;;;;5024297;28;19923;-67
2022/12/20 12:53:49;;;;;;;;;;;;;;;;;;5027161;28;20325;-66
2022/12/20 12:56:15;;;;;;;;;;;;;;;;;;5027052;28;20010;-67
2022/12/20 12:58:41;;;;;;;;;;;;;;;;;;5025022;28;19960;-70
2022/12/20 13:01:07;;;;;;;;;;;;;;;;;;5024998;28;19925;-69
2022/12/20 13:03:33;;;;;;;;;;;;;;;;;;5026175;28;20653;-69
2022/12/20 13:05:59;;;;;;;;;;;;;;;;;;5025481;28;20020;-71
2022/12/20 13:08:25;;;;;;;;;;;;;;;;;;5023840;28;19923;-69
2022/12/20 13:10:51;;;;;;;;;;;;;;;;;;5025802;28;19917;-68
2022/12/20 13:13:17;;;;;;;;;;;;;;;;;;5026354;28;19997;-66
2022/12/20 13:15:43;;;;;;;;;;;;;;;;;;5026395;28;19917;-67
2022/12/20 13:18:09;;;;;;;;;;;;;;;;;;5026064;28;19913;-69
2022/12/20 13:20:35;;;;;;;;;;;;;;;;;;5024639;28;20016;-65
2022/12/20 13:23:01;;;;;;;;;;;;;;;;;;5025725;28;20055;-66
2022/12/20 13:25:27;;;;;;;;;;;;;;;;;;5026388;28;19921;-65
2022/12/20 13:27:53;;;;;;;;;;;;;;;;;;5026755;28;19925;-66
2022/12/20 13:30:20;;;;;;;;;;;;;;;;;;5026397;28;20458;-67
2022/12/20 13:32:46;;;;;;;;;;;;;;;;;;5025538;28;19921;-65
2022/12/20 13:35:13;;;;;;;;;;;;;;;;;;5026570;28;20382;-67
2022/12/20 13:37:40;;;;;;;;;;;;;;;;;;5023673;28;19917;-67
2022/12/20 13:40:05;;;;;;;;;;;;;;;;;;5025641;28;19979;-66
2022/12/20 13:42:31;;;;;;;;;;;;;;;;;;5025705;28;19955;-67
2022/12/20 13:44:57;;;;;;;;;;;;;;;;;;5026856;28;19924;-67
2022/12/20 13:47:23;;;;;;;;;;;;;;;;;;5028436;28;20090;-67
2022/12/20 13:49:49;;;;;;;;;;;;;;;;;;5029239;28;19917;-66
2022/12/20 13:52:15;;;;;;;;;;;;;;;;;;5029375;28;19964;-67
2022/12/20 13:54:41;;;;;;;;;;;;;;;;;;5029792;28;19917;-67
2022/12/20 13:57:07;;;;;;;;;;;;;;;;;;5028352;28;20431;-65
2022/12/20 13:59:33;;;;;;;;;;;;;;;;;;5029054;28;19921;-65
2022/12/20 14:01:58;;;;;;;;;;;;;;;;;;5028821;28;19921;-66
2022/12/20 14:04:25;;;;;;;;;;;;;;;;;;5029563;28;19929;-66
2022/12/20 14:06:51;;;;;;;;;;;;;;;;;;5028962;28;19917;-67
2022/12/20 14:09:17;;;;;;;;;;;;;;;;;;5027665;28;20492;-67
2022/12/20 14:11:43;;;;;;;;;;;;;;;;;;5029470;28;19913;-65
2022/12/20 14:14:09;;;;;;;;;;;;;;;;;;5027742;28;20446;-64
2022/12/20 14:16:36;;;;;;;;;;;;;;;;;;5029287;28;20015;-67
2022/12/20 14:19:02;;;;;;;;;;;;;;;;;;5029435;28;19917;-65
2022/12/20 14:21:27;;;;;;;;;;;;;;;;;;5028875;28;19975;-67
2022/12/20 14:23:53;;;;;;;;;;;;;;;;;;5028630;28;19979;-66
2022/12/20 14:26:19;;;;;;;;;;;;;;;;;;5029987;28;19917;-66
2022/12/20 14:28:45;;;;;;;;;;;;;;;;;;5028778;28;19944;-67
2022/12/20 14:31:11;;;;;;;;;;;;;;;;;;5027792;28;19952;-67
2022/12/20 14:33:37;;;;;;;;;;;;;;;;;;5029428;28;19913;-67
2022/12/20 14:36:03;;;;;;;;;;;;;;;;;;5029209;28;19917;-66
2022/12/20 14:38:32;;;;;;;;;;;;;;;;;;5028100;28;19920;-68
2022/12/20 14:40:58;;;;;;;;;;;;;;;;;;5029272;28;20029;-65
2022/12/20 14:43:24;;;;;;;;;;;;;;;;;;5028308;28;19952;-67
2022/12/20 14:45:50;;;;;;;;;;;;;;;;;;5026998;28;19913;-66
2022/12/20 14:48:16;;;;;;;;;;;;;;;;;;5028888;28;20374;-66
2022/12/20 14:50:42;;;;;;;;;;;;;;;;;;5029064;28;19956;-67
2022/12/20 14:53:08;;;;;;;;;;;;;;;;;;5027639;28;19917;-67
2022/12/20 14:55:35;;;;;;;;;;;;;;;;;;5028053;28;19913;-67
2022/12/20 14:58:01;;;;;;;;;;;;;;;;;;5026695;28;19917;-67
2022/12/20 15:00:27;;;;;;;;;;;;;;;;;;5027636;28;19924;-67
2022/12/20 15:02:53;;;;;;;;;;;;;;;;;;5028490;28;19971;-67
2022/12/20 15:05:18;;;;;;;;;;;;;;;;;;5028522;28;19913;-66
2022/12/20 15:07:44;;;;;;;;;;;;;;;;;;5024916;28;20304;-67
2022/12/20 15:10:10;;;;;;;;;;;;;;;;;;5028810;28;19924;-66
2022/12/20 15:12:36;;;;;;;;;;;;;;;;;;5027890;28;19919;-66
2022/12/20 15:15:02;;;;;;;;;;;;;;;;;;5028310;28;20012;-67
2022/12/20 15:17:28;;;;;;;;;;;;;;;;;;5028414;28;20837;-66
2022/12/20 15:19:54;;;;;;;;;;;;;;;;;;5042689;28;19925;-65
2022/12/20 15:22:20;;;;;;;;;;;;;;;;;;5028124;28;19990;-65
2022/12/20 15:24:46;;;;;;;;;;;;;;;;;;5027619;28;19967;-66
2022/12/20 15:27:12;;;;;;;;;;;;;;;;;;5028410;28;20243;-65
2022/12/20 15:29:38;;;;;;;;;;;;;;;;;;5027824;28;19920;-66
2022/12/20 15:32:04;;;;;;;;;;;;;;;;;;5027626;28;19959;-66
2022/12/20 15:34:30;;;;;;;;;;;;;;;;;;5028325;28;19920;-65
2022/12/20 15:36:58;;;;;;;;;;;;;;;;;;5028469;28;19917;-67
2022/12/20 15:39:24;;;;;;;;;;;;;;;;;;5024492;28;19913;-67
2022/12/20 15:41:50;;;;;;;;;;;;;;;;;;5027547;28;19921;-66
2022/12/20 15:44:16;;;;;;;;;;;;;;;;;;5027226;28;19992;-73
2022/12/20 15:46:43;;;;;;;;;;;;;;;;;;5027458;28;19917;-62
2022/12/20 15:49:08;;;;;;;;;;;;;;;;;;5026919;28;20032;-62
2022/12/20 15:51:34;;;;;;;;;;;;;;;;;;5027659;28;20016;-61
2022/12/20 15:54:00;;;;;;;;;;;;;;;;;;5026973;28;19924;-61
2022/12/20 15:56:26;;;;;;;;;;;;;;;;;;5028296;28;19971;-61
2022/12/20 15:58:52;;;;;;;;;;;;;;;;;;5027245;28;20020;-61
2022/12/20 16:01:18;;;;;;;;;;;;;;;;;;5027901;28;19917;-61
2022/12/20 16:03:44;;;;;;;;;;;;;;;;;;5027622;28;19943;-61
2022/12/20 16:06:11;;;;;;;;;;;;;;;;;;5027298;28;20297;-68
2022/12/20 16:08:37;;;;;;;;;;;;;;;;;;5023886;28;19917;-68
2022/12/20 16:11:03;;;;;;;;;;;;;;;;;;5027440;28;20860;-69
2022/12/20 16:13:29;;;;;;;;;;;;;;;;;;5026961;28;20015;-68
2022/12/20 16:15:55;;;;;;;;;;;;;;;;;;5027352;28;19917;-66
2022/12/20 16:18:21;;;;;;;;;;;;;;;;;;5027369;28;20638;-67
2022/12/20 16:20:46;;;;;;;;;;;;;;;;;;5027536;28;19925;-68
2022/12/20 16:23:12;;;;;;;;;;;;;;;;;;5027284;28;19975;-68
2022/12/20 16:25:38;;;;;;;;;;;;;;;;;;5026756;28;19924;-68
2022/12/20 16:28:04;;;;;;;;;;;;;;;;;;5027943;28;19959;-67
2022/12/20 16:30:30;;;;;;;;;;;;;;;;;;5024800;28;19914;-68
2022/12/20 16:32:57;;;;;;;;;;;;;;;;;;5027196;28;19967;-68
2022/12/20 16:35:23;;;;;;;;;;;;;;;;;;5023479;28;20004;-67
2022/12/20 16:37:49;;;;;;;;;;;;;;;;;;5023642;28;20009;-69
2022/12/20 16:40:15;;;;;;;;;;;;;;;;;;5026085;28;19921;-69
2022/12/20 16:42:41;;;;;;;;;;;;;;;;;;5024202;28;20365;-67
2022/12/20 16:45:07;;;;;;;;;;;;;;;;;;5027264;28;19917;-69